Search for airport 
image banner adimage banner adimage banner ad
image banner ad

IA27 - Antique Airfield

Located in Blakesburg, United States

ICAO - IA27, IATA -

Data provided by Airmate  

General information

Coordinates: N40°58'40" W92°35'16"
Elevation is 890 feet MSL.
Magnetic variation is 03° East
View others Airports in Iowa

Operational data

Special qualification required
Current time UTC:
Current local time:
Weather at : KOTM - Ottumwa Rgnl ( 19 km )
METAR: KOTM 181653Z AUTO 02013KT 10SM FEW120 28/22 A2981 RMK AO2 SLP084 T02780217
TAF: KOTM 181328Z 1813/1912 31007KT P6SM -SHRA VCTS SCT080CB BKN150 FM181600 09006KT P6SM BKN200 FM190000 VRB03KT P6SM VCSH SCT050 BKN100 FM190800 22006KT P6SM SCT100 BKN200
View NOTAMs / SUP AIP / TFR affecting this airport [VIEW]
Communications frequencies: [VIEW]

Runways:

RWY identifierQFULength (ft)Width (ft)SurfaceLDA (ft)
182350175GRASS
362350175GRASS

Airport contact information

Address: Blakesburg United States

Satellite view of IA27